sim
Sign-in with your pilot id or email,
or register
Callsign
Passwort

Schedule Details

Flight Number: OEO6127
Departure: Port Bouet Airport (DIAP) at 06:35
Arrival: Munich Airport (EDDM) at 13:25

Weather Information
Getting current METAR information for DIAP 010500Z 24007KT 9999 FEW012 25/24 Q1010 NOSIG
Getting current METAR information for EDDM 010520Z VRB02KT 0300 R08L/0400N R08R/0400U FG BKN001 03/03 Q1009 NOSIG

Schedule Frequency

Route Map